createdAt,value
2017-07-30T00:02:05.200Z,95595
2017-07-30T00:04:40.194Z,95600
2017-07-30T00:07:19.823Z,95605
2017-07-30T00:09:54.647Z,95602
2017-07-30T00:12:29.471Z,95591
2017-07-30T00:15:04.444Z,95596
2017-07-30T00:17:40.260Z,95600
2017-07-30T00:20:15.208Z,95602
2017-07-30T00:22:50.001Z,95596
2017-07-30T00:25:25.112Z,95601
2017-07-30T00:27:59.926Z,95605
2017-07-30T00:30:36.884Z,95603
2017-07-30T00:33:11.686Z,95605
2017-07-30T00:35:46.648Z,95603
2017-07-30T00:38:31.428Z,95601
2017-07-30T00:41:06.293Z,95604
2017-07-30T00:43:41.207Z,95593
2017-07-30T00:46:16.141Z,95604
2017-07-30T00:48:51.058Z,95594
2017-07-30T00:51:25.997Z,95602
2017-07-30T00:54:00.830Z,95592
2017-07-30T00:56:35.869Z,95587
2017-07-30T00:59:10.652Z,95589
2017-07-30T01:01:45.442Z,95588
2017-07-30T01:04:20.372Z,95590
2017-07-30T01:06:57.285Z,95587
2017-07-30T01:09:32.179Z,95590
2017-07-30T01:12:07.112Z,95587
2017-07-30T01:14:42.022Z,95575
2017-07-30T01:17:17.124Z,95570
2017-07-30T01:19:52.040Z,95574
2017-07-30T01:22:39.459Z,95565
2017-07-30T01:25:14.260Z,95565
2017-07-30T01:27:49.188Z,95567
2017-07-30T01:30:28.662Z,95562
2017-07-30T01:33:03.588Z,95568
2017-07-30T01:35:46.907Z,95570
2017-07-30T01:38:21.866Z,95562
2017-07-30T01:40:56.951Z,95562
2017-07-30T01:43:31.789Z,95569
2017-07-30T01:46:06.723Z,95560
2017-07-30T01:48:46.296Z,95559
2017-07-30T01:51:21.196Z,95557
2017-07-30T01:53:56.127Z,95558
2017-07-30T01:56:31.032Z,95554
2017-07-30T01:59:05.952Z,95553
2017-07-30T02:01:40.811Z,95561
2017-07-30T02:04:15.657Z,95554
2017-07-30T02:06:50.551Z,95559
2017-07-30T02:09:26.463Z,95559
2017-07-30T02:12:01.378Z,95554
2017-07-30T02:14:36.165Z,95553
2017-07-30T02:17:11.092Z,95552
2017-07-30T02:19:46.823Z,95548
2017-07-30T02:22:21.736Z,95548
2017-07-30T02:24:56.676Z,95544
2017-07-30T02:27:33.524Z,95554
2017-07-30T02:30:08.456Z,95547
2017-07-30T02:32:43.399Z,95548
2017-07-30T02:35:18.328Z,95539
2017-07-30T02:37:53.258Z,95548
2017-07-30T02:40:28.176Z,95554
2017-07-30T02:43:03.085Z,95555
2017-07-30T02:45:38.011Z,95550
2017-07-30T02:48:12.803Z,95552
2017-07-30T02:50:47.729Z,95557
2017-07-30T02:53:22.623Z,95559
2017-07-30T02:55:57.572Z,95562
2017-07-30T02:58:32.517Z,95561
2017-07-30T03:01:07.424Z,95556
2017-07-30T03:03:42.328Z,95554
2017-07-30T03:06:17.156Z,95559
2017-07-30T03:08:52.072Z,95562
2017-07-30T03:11:26.994Z,95566
2017-07-30T03:14:01.911Z,95569
2017-07-30T03:16:36.848Z,95556
2017-07-30T03:19:11.644Z,95561
2017-07-30T03:21:46.680Z,95560
2017-07-30T03:24:21.604Z,95559
2017-07-30T03:27:02.890Z,95554
2017-07-30T03:29:37.827Z,95552
2017-07-30T03:32:12.799Z,95552
2017-07-30T03:34:47.693Z,95553
2017-07-30T03:37:22.643Z,95555
2017-07-30T03:39:57.580Z,95553
2017-07-30T03:42:32.504Z,95556
2017-07-30T03:45:07.448Z,95562
2017-07-30T03:47:42.253Z,95551
2017-07-30T03:50:17.177Z,95556
2017-07-30T03:52:52.103Z,95548
2017-07-30T03:55:27.014Z,95548
2017-07-30T03:58:01.963Z,95555
2017-07-30T04:00:36.908Z,95555
2017-07-30T04:03:11.904Z,95557
2017-07-30T04:05:46.812Z,95561
2017-07-30T04:08:21.639Z,95554
2017-07-30T04:10:56.531Z,95548
2017-07-30T04:13:31.459Z,95556
2017-07-30T04:16:06.419Z,95560
2017-07-30T04:18:41.366Z,95553
2017-07-30T04:21:16.152Z,95546
2017-07-30T04:23:53.072Z,95560
2017-07-30T04:26:27.986Z,95552
2017-07-30T04:29:02.938Z,95545
2017-07-30T04:31:37.837Z,95565
2017-07-30T04:34:12.800Z,95563
2017-07-30T04:36:47.709Z,95544
2017-07-30T04:39:22.648Z,95540
2017-07-30T04:41:57.544Z,95539
2017-07-30T04:44:32.483Z,95530
2017-07-30T04:47:07.271Z,95551
2017-07-30T04:49:42.184Z,95533
2017-07-30T04:52:17.096Z,95533
2017-07-30T04:54:52.032Z,95541
2017-07-30T04:57:26.968Z,95541
2017-07-30T05:00:01.883Z,95543
2017-07-30T05:02:36.787Z,95541
2017-07-30T05:05:23.400Z,95537
2017-07-30T05:07:58.316Z,95534
2017-07-30T05:10:33.233Z,95531
2017-07-30T05:13:08.170Z,95542
2017-07-30T05:15:43.104Z,95534
2017-07-30T05:18:18.013Z,95531
2017-07-30T05:20:52.813Z,95530
2017-07-30T05:23:27.751Z,95531
2017-07-30T05:26:02.691Z,95528
2017-07-30T05:28:37.470Z,95535
2017-07-30T05:31:12.389Z,95540
2017-07-30T05:33:47.328Z,95533
2017-07-30T05:36:22.259Z,95534
2017-07-30T05:38:57.169Z,95532
2017-07-30T05:41:32.105Z,95524
2017-07-30T05:44:07.020Z,95529
2017-07-30T05:46:41.800Z,95534
2017-07-30T05:49:16.708Z,95528
2017-07-30T05:51:51.684Z,95530
2017-07-30T05:54:26.604Z,95533
2017-07-30T05:57:01.516Z,95538
2017-07-30T05:59:36.411Z,95524
2017-07-30T06:02:11.360Z,95526
2017-07-30T06:04:46.150Z,95524
2017-07-30T06:07:21.072Z,95526
2017-07-30T06:09:55.872Z,95521
2017-07-30T06:12:30.804Z,95534
2017-07-30T06:15:05.788Z,95532
2017-07-30T06:17:40.598Z,95529
2017-07-30T06:20:15.388Z,95529
2017-07-30T06:22:50.317Z,95532
2017-07-30T06:25:25.228Z,95519
2017-07-30T06:28:00.025Z,95528
2017-07-30T06:30:34.807Z,95524
2017-07-30T06:33:09.592Z,95525
2017-07-30T06:35:44.416Z,95521
2017-07-30T06:38:19.215Z,95529
2017-07-30T06:40:53.991Z,95521
2017-07-30T06:43:28.799Z,95515
2017-07-30T06:46:03.576Z,95514
2017-07-30T06:48:38.507Z,95517
2017-07-30T06:51:13.315Z,95512
2017-07-30T06:53:48.120Z,95515
2017-07-30T06:56:23.016Z,95514
2017-07-30T06:58:57.819Z,95516
2017-07-30T07:01:32.715Z,95511
2017-07-30T07:04:07.508Z,95522
2017-07-30T07:06:42.404Z,95524
2017-07-30T07:09:17.200Z,95519
2017-07-30T07:11:52.108Z,95522
2017-07-30T07:14:27.016Z,95530
2017-07-30T07:17:01.945Z,95529
2017-07-30T07:19:36.895Z,95525
2017-07-30T07:22:12.010Z,95520
2017-07-30T07:24:52.689Z,95214
2017-07-30T07:27:27.605Z,95515
2017-07-30T07:30:02.376Z,95516
2017-07-30T07:32:37.274Z,95521
2017-07-30T07:35:13.167Z,95514
2017-07-30T07:37:48.118Z,95512
2017-07-30T07:40:23.013Z,95514
2017-07-30T07:42:57.908Z,95525
2017-07-30T07:45:32.688Z,95516
2017-07-30T07:48:08.539Z,95509
2017-07-30T07:50:43.444Z,95509
2017-07-30T07:53:18.220Z,95505
2017-07-30T07:55:53.008Z,95510
2017-07-30T07:58:30.384Z,95509
2017-07-30T08:01:05.155Z,95508
2017-07-30T08:03:40.744Z,95517
2017-07-30T08:06:15.514Z,95515
2017-07-30T08:08:50.298Z,95514
2017-07-30T08:11:25.203Z,95516
2017-07-30T08:14:00.091Z,95523
2017-07-30T08:16:35.156Z,95517
2017-07-30T08:19:10.033Z,95522
2017-07-30T08:21:44.931Z,95524
2017-07-30T08:24:19.685Z,95522
2017-07-30T08:26:54.459Z,95516
2017-07-30T08:29:29.251Z,95512
2017-07-30T08:32:04.464Z,95522
2017-07-30T08:34:39.236Z,95520
2017-07-30T08:37:14.019Z,95515
2017-07-30T08:39:48.916Z,95520
2017-07-30T08:42:23.682Z,95526
2017-07-30T08:44:58.457Z,95527
2017-07-30T08:47:33.261Z,95516
2017-07-30T08:50:08.146Z,95527
2017-07-30T08:52:42.966Z,95522
2017-07-30T08:55:17.759Z,95522
2017-07-30T08:57:52.522Z,95531
2017-07-30T09:00:27.442Z,95517
2017-07-30T09:03:02.224Z,95524
2017-07-30T09:05:37.007Z,95526
2017-07-30T09:08:11.911Z,95532
2017-07-30T09:10:46.670Z,95538
2017-07-30T09:13:21.650Z,95535
2017-07-30T09:15:56.873Z,95534
2017-07-30T09:18:31.819Z,95536
2017-07-30T09:21:06.857Z,95528
2017-07-30T09:23:41.964Z,95532
2017-07-30T09:26:16.740Z,95545
2017-07-30T09:28:51.659Z,95529
2017-07-30T09:31:26.419Z,95534
2017-07-30T09:34:01.238Z,95531
2017-07-30T09:36:36.012Z,95538
2017-07-30T09:39:11.106Z,95534
2017-07-30T09:41:46.006Z,95543
2017-07-30T09:44:20.923Z,95531
2017-07-30T09:46:55.826Z,95537
2017-07-30T09:49:30.795Z,95532
2017-07-30T09:52:05.820Z,95539
2017-07-30T09:54:40.723Z,95536
2017-07-30T09:57:15.611Z,95531
2017-07-30T09:59:50.534Z,95540
2017-07-30T10:02:25.300Z,95547
2017-07-30T10:05:00.116Z,95546
2017-07-30T10:07:35.034Z,95554
2017-07-30T10:10:09.826Z,95539
2017-07-30T10:12:44.776Z,95545
2017-07-30T10:15:19.646Z,95537
2017-07-30T10:17:54.410Z,95535
2017-07-30T10:20:29.189Z,95539
2017-07-30T10:23:03.959Z,95538
2017-07-30T10:25:38.890Z,95535
2017-07-30T10:28:13.787Z,95534
2017-07-30T10:30:48.704Z,95530
2017-07-30T10:33:23.493Z,95541
2017-07-30T10:35:58.273Z,95536
2017-07-30T10:38:33.029Z,95530
2017-07-30T10:41:07.935Z,95538
2017-07-30T10:43:42.832Z,95534
2017-07-30T10:46:17.609Z,95536
2017-07-30T10:48:52.393Z,95530
2017-07-30T10:51:27.180Z,95530
2017-07-30T10:54:02.084Z,95527
2017-07-30T10:56:36.865Z,95521
2017-07-30T10:59:11.755Z,95523
2017-07-30T11:01:46.676Z,95518
2017-07-30T11:04:22.496Z,95523
2017-07-30T11:06:57.274Z,95517
2017-07-30T11:09:32.043Z,95517
2017-07-30T11:12:06.973Z,95525
2017-07-30T11:14:41.860Z,95522
2017-07-30T11:17:17.871Z,95527
2017-07-30T11:19:52.615Z,95520
2017-07-30T11:22:27.593Z,95518
2017-07-30T11:25:05.853Z,95523
2017-07-30T11:27:48.763Z,95518
2017-07-30T11:30:23.755Z,95530
2017-07-30T11:32:59.375Z,95525
2017-07-30T11:35:38.613Z,95464
2017-07-30T11:38:20.130Z,95523
2017-07-30T11:40:56.101Z,95523
2017-07-30T11:43:31.229Z,95533
2017-07-30T11:46:06.152Z,95530
2017-07-30T11:48:41.097Z,95516
2017-07-30T11:51:18.184Z,95512
2017-07-30T11:53:55.077Z,95515
2017-07-30T11:56:30.039Z,95515
2017-07-30T11:59:04.819Z,95508
2017-07-30T12:01:39.802Z,95513
2017-07-30T12:04:14.850Z,95507
2017-07-30T12:06:49.832Z,95514
2017-07-30T12:09:24.599Z,95524
2017-07-30T12:11:59.514Z,95515
2017-07-30T12:14:34.288Z,95506
2017-07-30T12:17:09.180Z,95509
2017-07-30T12:19:44.088Z,95508
2017-07-30T12:22:18.980Z,95501
2017-07-30T12:24:53.951Z,95505
2017-07-30T12:27:29.173Z,95510
2017-07-30T12:30:04.909Z,95506
2017-07-30T12:32:40.844Z,95508
2017-07-30T12:35:15.764Z,95513
2017-07-30T12:37:50.649Z,95505
2017-07-30T12:40:25.556Z,95494
2017-07-30T12:43:00.733Z,95496
2017-07-30T12:45:36.039Z,95498
2017-07-30T12:48:10.823Z,95499
2017-07-30T12:54:06.249Z,95503
2017-07-30T12:56:47.180Z,95484
2017-07-30T12:59:21.988Z,95474
2017-07-30T13:02:02.573Z,95468
2017-07-30T13:04:44.096Z,95463
2017-07-30T13:07:28.118Z,95467
2017-07-30T13:10:04.936Z,95460
2017-07-30T13:12:41.775Z,95459
2017-07-30T13:15:29.654Z,95443
2017-07-30T13:18:05.646Z,95434
2017-07-30T13:20:49.398Z,95421
2017-07-30T13:23:29.036Z,95412
2017-07-30T13:26:08.959Z,95407
2017-07-30T13:28:47.722Z,95428
2017-07-30T13:31:24.667Z,95463
2017-07-30T13:34:05.180Z,95553
2017-07-30T13:36:48.712Z,95637
2017-07-30T13:45:12.855Z,95645
2017-07-30T13:48:07.256Z,95760
2017-07-30T13:51:14.839Z,95763
2017-07-30T13:53:54.073Z,95709
2017-07-30T13:56:51.155Z,95679
2017-07-30T13:59:36.295Z,95629
2017-07-30T14:02:22.054Z,95616
2017-07-30T14:05:06.023Z,95624
2017-07-30T14:07:48.309Z,95612
2017-07-30T14:10:43.383Z,95595
2017-07-30T14:13:43.995Z,95620
2017-07-30T14:16:24.835Z,95623
2017-07-30T14:19:08.574Z,95639
2017-07-30T14:21:50.263Z,95598
2017-07-30T14:24:43.900Z,95609
2017-07-30T14:30:32.609Z,95631
2017-07-30T14:33:10.105Z,95627
2017-07-30T14:35:45.298Z,95608
2017-07-30T14:38:32.404Z,95609
2017-07-30T14:41:12.049Z,95592
2017-07-30T14:43:52.172Z,95583
2017-07-30T14:46:36.753Z,95578
2017-07-30T14:49:15.031Z,95576
2017-07-30T14:51:59.371Z,95571
2017-07-30T14:54:42.364Z,95555
2017-07-30T14:57:18.470Z,95555
2017-07-30T14:59:55.354Z,95561
2017-07-30T15:02:41.920Z,95567
2017-07-30T15:05:18.008Z,95572
2017-07-30T15:07:53.123Z,95581
2017-07-30T15:10:33.796Z,95569
2017-07-30T15:13:09.049Z,95613
2017-07-30T15:15:44.095Z,95590
2017-07-30T15:18:19.133Z,95587
2017-07-30T15:20:54.284Z,95577
2017-07-30T15:23:30.470Z,95585
2017-07-30T15:32:12.952Z,95593
2017-07-30T15:37:56.382Z,95601
2017-07-30T15:40:34.011Z,95589
2017-07-30T15:43:11.975Z,95607
2017-07-30T15:45:53.706Z,95605
2017-07-30T15:48:35.800Z,95621
2017-07-30T15:51:24.351Z,95608
2017-07-30T15:54:09.380Z,95604
2017-07-30T15:56:48.515Z,95601
2017-07-30T15:59:25.392Z,95603
2017-07-30T16:02:07.209Z,95594
2017-07-30T16:04:45.247Z,95589
2017-07-30T16:07:27.532Z,95587
2017-07-30T16:10:11.169Z,95582
2017-07-30T16:12:48.075Z,95588
2017-07-30T16:15:27.402Z,95589
2017-07-30T16:18:08.369Z,95585
2017-07-30T16:20:49.108Z,95593
2017-07-30T16:23:28.857Z,95581
2017-07-30T16:26:07.579Z,95590
2017-07-30T16:28:44.606Z,95590
2017-07-30T16:31:31.392Z,95592
2017-07-30T16:34:15.191Z,95589
2017-07-30T16:36:57.175Z,95585
2017-07-30T16:39:35.059Z,95584
2017-07-30T16:42:15.591Z,95582
2017-07-30T16:44:54.608Z,95587
2017-07-30T16:47:33.150Z,95588
2017-07-30T16:50:09.430Z,95576
2017-07-30T16:52:48.095Z,95577
2017-07-30T16:55:29.201Z,95568
2017-07-30T16:58:08.056Z,95571
2017-07-30T17:00:44.596Z,95562
2017-07-30T17:03:32.195Z,95559
2017-07-30T17:06:17.604Z,95561
2017-07-30T17:09:01.036Z,95567
2017-07-30T17:11:39.537Z,95559
2017-07-30T17:14:17.727Z,95561
2017-07-30T17:16:53.360Z,95561
2017-07-30T17:19:28.836Z,95561
2017-07-30T17:22:08.632Z,95559
2017-07-30T17:24:47.581Z,95559
2017-07-30T17:27:38.812Z,95557
2017-07-30T17:30:23.390Z,95561
2017-07-30T17:33:18.822Z,95551
2017-07-30T17:36:00.562Z,95548
2017-07-30T17:38:50.913Z,95543
2017-07-30T17:41:31.100Z,95537
2017-07-30T17:44:27.964Z,95544
2017-07-30T17:47:31.324Z,95544
2017-07-30T17:50:19.567Z,95547
2017-07-30T17:53:06.816Z,95552
2017-07-30T17:55:45.480Z,95550
2017-07-30T17:58:27.541Z,95552
2017-07-30T18:01:06.601Z,95543
2017-07-30T18:03:49.080Z,95545
2017-07-30T18:06:27.799Z,95546
2017-07-30T18:21:30.566Z,95569
2017-07-30T18:24:06.504Z,95570
2017-07-30T18:26:41.759Z,95573
2017-07-30T18:29:28.055Z,95571
2017-07-30T18:32:05.447Z,95559
2017-07-30T18:34:41.809Z,95549
2017-07-30T18:37:26.673Z,95552
2017-07-30T18:40:06.732Z,95570
2017-07-30T18:42:43.706Z,95591
2017-07-30T18:45:34.342Z,95584
2017-07-30T18:48:14.049Z,95577
2017-07-30T18:50:54.513Z,95576
2017-07-30T18:53:33.231Z,95569
2017-07-30T18:56:11.748Z,95590
2017-07-30T18:58:54.666Z,95609
2017-07-30T19:01:35.346Z,95623
2017-07-30T19:04:13.234Z,95611
2017-07-30T19:06:52.570Z,95623
2017-07-30T19:09:28.567Z,95619
2017-07-30T19:12:07.247Z,95619
2017-07-30T19:14:55.624Z,95624
2017-07-30T19:17:38.875Z,95622
2017-07-30T19:20:21.237Z,95633
2017-07-30T19:22:59.127Z,95657
2017-07-30T19:25:41.609Z,95669
2017-07-30T19:28:21.608Z,95682
2017-07-30T19:31:01.169Z,95704
2017-07-30T19:33:38.822Z,95725
2017-07-30T19:36:22.076Z,95746
2017-07-30T19:39:01.048Z,95687
2017-07-30T19:41:41.332Z,95646
2017-07-30T19:44:21.078Z,95675
2017-07-30T19:46:59.562Z,95682
2017-07-30T19:49:39.849Z,95717
2017-07-30T19:52:24.198Z,95745
2017-07-30T19:55:06.716Z,95760
2017-07-30T19:57:44.935Z,95742
2017-07-30T20:00:26.475Z,95728
2017-07-30T20:03:08.916Z,95710
2017-07-30T20:05:51.819Z,95685
2017-07-30T20:08:33.417Z,95684
2017-07-30T20:11:17.366Z,95685
2017-07-30T20:16:47.977Z,95711
2017-07-30T20:19:36.671Z,95698
2017-07-30T20:22:22.046Z,95697
2017-07-30T20:25:02.223Z,95693
2017-07-30T20:27:42.948Z,95691
2017-07-30T20:30:23.430Z,95687
2017-07-30T20:33:07.470Z,95689
2017-07-30T20:35:45.992Z,95690
2017-07-30T20:38:28.222Z,95695
2017-07-30T20:41:13.162Z,95701
2017-07-30T20:44:03.176Z,95705
2017-07-30T20:46:41.354Z,95699
2017-07-30T20:49:26.834Z,95704
2017-07-30T20:52:08.422Z,95710
2017-07-30T20:54:51.034Z,95711
2017-07-30T20:57:35.182Z,95709
2017-07-30T21:00:14.926Z,95716
2017-07-30T21:02:56.610Z,95693
2017-07-30T21:08:46.008Z,95685
2017-07-30T21:11:38.552Z,95693
2017-07-30T21:14:26.187Z,95697
2017-07-30T21:17:29.703Z,95704
2017-07-30T21:20:23.364Z,95717
2017-07-30T21:28:42.173Z,95711
2017-07-30T21:31:28.583Z,95718
2017-07-30T21:34:22.964Z,95718
2017-07-30T21:37:13.484Z,95720
2017-07-30T21:39:54.434Z,95708
2017-07-30T21:42:37.834Z,95718
2017-07-30T21:45:21.574Z,95724
2017-07-30T21:47:58.044Z,95731
2017-07-30T21:50:42.805Z,95724
2017-07-30T21:53:25.881Z,95732
2017-07-30T21:56:17.759Z,95733
2017-07-30T21:58:55.703Z,95732
2017-07-30T22:01:30.613Z,95720
2017-07-30T22:04:05.515Z,95714
2017-07-30T22:06:40.480Z,95728
2017-07-30T22:09:17.268Z,95767
2017-07-30T22:11:52.196Z,95780
2017-07-30T22:14:30.504Z,95767
2017-07-30T22:17:06.780Z,95751
2017-07-30T22:19:41.668Z,95745
2017-07-30T22:22:16.626Z,95740
2017-07-30T22:24:51.419Z,95748
2017-07-30T22:27:27.437Z,95752
2017-07-30T22:30:02.332Z,95755
2017-07-30T22:32:38.252Z,95760
2017-07-30T22:35:13.148Z,95764
2017-07-30T22:37:48.079Z,95750
2017-07-30T22:40:24.024Z,95740
2017-07-30T22:42:59.084Z,95734
2017-07-30T22:45:33.904Z,95723
2017-07-30T22:48:08.980Z,95698
2017-07-30T22:50:43.743Z,95680
2017-07-30T22:53:18.525Z,95652
2017-07-30T22:55:53.423Z,95625
2017-07-30T22:58:28.303Z,95608
2017-07-30T23:01:03.064Z,95647
2017-07-30T23:03:37.851Z,95729
2017-07-30T23:06:12.698Z,95726
2017-07-30T23:08:47.653Z,95718
2017-07-30T23:11:24.444Z,95728
2017-07-30T23:13:59.360Z,95730
2017-07-30T23:16:35.124Z,95745
2017-07-30T23:19:10.044Z,95754
2017-07-30T23:21:45.260Z,95756
2017-07-30T23:24:22.087Z,95772
2017-07-30T23:26:56.986Z,95764
2017-07-30T23:29:31.956Z,95766
2017-07-30T23:32:06.796Z,95754
2017-07-30T23:34:41.640Z,95754
2017-07-30T23:37:16.519Z,95773
2017-07-30T23:39:51.432Z,95744
2017-07-30T23:42:26.331Z,95746
2017-07-30T23:45:01.122Z,95744
2017-07-30T23:47:36.018Z,95744
2017-07-30T23:50:10.947Z,95752
2017-07-30T23:52:45.836Z,95746
2017-07-30T23:55:20.737Z,95751
2017-07-30T23:57:55.808Z,95760
